createdAt,value
2023-02-28T00:01:53.304Z,68.47
2023-02-28T00:04:22.054Z,68.47
2023-02-28T00:06:50.874Z,68.63
2023-02-28T00:09:19.610Z,68.59
2023-02-28T00:11:49.911Z,68.74
2023-02-28T00:14:19.142Z,68.81
2023-02-28T00:16:47.959Z,68.81
2023-02-28T00:19:17.212Z,68.71
2023-02-28T00:21:45.906Z,68.86
2023-02-28T00:24:14.744Z,68.89
2023-02-28T00:26:43.526Z,69.05
2023-02-28T00:29:13.866Z,68.87
2023-02-28T00:31:42.629Z,68.81
2023-02-28T00:34:13.704Z,68.58
2023-02-28T00:36:46.469Z,68.88
2023-02-28T00:39:15.235Z,68.71
2023-02-28T00:41:44.373Z,69.13
2023-02-28T00:44:15.034Z,69.36
2023-02-28T00:46:43.825Z,69.78
2023-02-28T00:49:12.590Z,69.90
2023-02-28T00:51:41.445Z,70.01
2023-02-28T00:54:10.892Z,70.29
2023-02-28T00:56:39.373Z,70.42
2023-02-28T00:59:08.075Z,70.85
2023-02-28T01:01:38.226Z,70.77
2023-02-28T01:04:07.193Z,70.99
2023-02-28T01:06:38.189Z,71.45
2023-02-28T01:09:09.086Z,71.50
2023-02-28T01:11:37.980Z,71.65
2023-02-28T01:14:07.427Z,71.38
2023-02-28T01:16:37.340Z,71.62
2023-02-28T01:19:05.914Z,71.51
2023-02-28T01:21:36.167Z,71.69
2023-02-28T01:24:05.718Z,71.79
2023-02-28T01:26:34.445Z,71.62
2023-02-28T01:29:03.386Z,71.64
2023-02-28T01:31:32.481Z,71.31
2023-02-28T01:34:02.815Z,71.31
2023-02-28T01:36:31.888Z,71.16
2023-02-28T01:39:00.536Z,71.13
2023-02-28T01:41:32.257Z,70.98
2023-02-28T01:44:06.911Z,70.90
2023-02-28T01:46:37.826Z,70.73
2023-02-28T01:49:14.189Z,70.65
2023-02-28T01:51:51.835Z,70.49
2023-02-28T01:54:25.444Z,70.28
2023-02-28T01:56:59.712Z,70.25
2023-02-28T01:59:34.572Z,70.07
2023-02-28T02:02:04.503Z,70.21
2023-02-28T02:04:43.353Z,70.27
2023-02-28T02:07:13.783Z,70.17
2023-02-28T02:09:46.740Z,70.21
2023-02-28T02:12:29.647Z,70.38
2023-02-28T02:15:09.525Z,70.34
2023-02-28T02:17:42.682Z,70.23
2023-02-28T02:20:36.124Z,70.23
2023-02-28T02:23:27.971Z,70.01
2023-02-28T02:26:02.452Z,69.97
2023-02-28T02:28:56.912Z,70.29
2023-02-28T02:31:54.525Z,70.19
2023-02-28T02:34:42.163Z,70.22
2023-02-28T02:37:22.400Z,70.43
2023-02-28T02:39:57.230Z,70.37
2023-02-28T02:42:31.108Z,71.13
2023-02-28T02:45:07.380Z,70.75
2023-02-28T02:47:37.802Z,70.64
2023-02-28T02:50:15.524Z,70.57
2023-02-28T02:52:51.052Z,70.35
2023-02-28T02:55:22.932Z,70.60
2023-02-28T02:57:56.046Z,70.50
2023-02-28T03:00:31.381Z,70.60
2023-02-28T03:03:01.613Z,70.43
2023-02-28T03:05:36.681Z,70.51
2023-02-28T03:08:07.765Z,70.58
2023-02-28T03:10:41.061Z,70.53
2023-02-28T03:13:32.771Z,70.48
2023-02-28T03:16:26.545Z,70.96
2023-02-28T03:19:05.380Z,70.81
2023-02-28T03:21:43.259Z,70.82
2023-02-28T03:24:18.546Z,71.31
2023-02-28T03:26:55.622Z,71.08
2023-02-28T03:29:30.164Z,71.18
2023-02-28T03:32:06.509Z,71.14
2023-02-28T03:34:38.665Z,71.15
2023-02-28T03:37:14.464Z,70.91
2023-02-28T03:39:46.960Z,70.86
2023-02-28T03:42:20.936Z,70.66
2023-02-28T03:44:56.558Z,70.52
2023-02-28T03:47:30.982Z,70.58
2023-02-28T03:50:03.780Z,70.68
2023-02-28T03:52:39.078Z,70.43
2023-02-28T03:55:12.597Z,70.54
2023-02-28T03:57:46.006Z,70.61
2023-02-28T04:00:20.137Z,70.64
2023-02-28T04:02:54.425Z,70.55
2023-02-28T04:05:23.784Z,70.59
2023-02-28T04:07:53.970Z,70.71
2023-02-28T04:10:23.296Z,71.27
2023-02-28T04:12:51.934Z,71.27
2023-02-28T04:15:24.194Z,71.33
2023-02-28T04:17:53.134Z,71.64
2023-02-28T04:20:21.805Z,71.84
2023-02-28T04:22:50.578Z,71.80
2023-02-28T04:25:20.745Z,72.17
2023-02-28T04:27:51.608Z,71.94
2023-02-28T04:30:20.508Z,72.71
2023-02-28T04:32:49.195Z,72.46
2023-02-28T04:35:18.167Z,72.96
2023-02-28T04:37:46.787Z,72.96
2023-02-28T04:40:15.745Z,73.25
2023-02-28T04:42:45.916Z,73.14
2023-02-28T04:45:14.676Z,73.41
2023-02-28T04:47:43.486Z,73.37
2023-02-28T04:50:12.866Z,73.79
2023-02-28T04:52:41.693Z,73.55
2023-02-28T04:55:11.502Z,73.91
2023-02-28T04:57:40.346Z,74.10
2023-02-28T05:00:12.742Z,74.39
2023-02-28T05:02:41.650Z,74.37
2023-02-28T05:05:10.617Z,74.36
2023-02-28T05:07:39.417Z,74.32
2023-02-28T05:10:08.843Z,74.76
2023-02-28T05:12:37.603Z,74.49
2023-02-28T05:15:07.114Z,74.72
2023-02-28T05:17:37.008Z,74.62
2023-02-28T05:20:15.318Z,74.79
2023-02-28T05:22:46.166Z,74.78
2023-02-28T05:25:19.102Z,75.00
2023-02-28T05:27:48.715Z,74.89
2023-02-28T05:30:17.932Z,74.86
2023-02-28T05:32:53.397Z,75.00
2023-02-28T05:35:22.232Z,74.82
2023-02-28T05:37:50.972Z,74.69
2023-02-28T05:40:21.989Z,75.15
2023-02-28T05:42:52.880Z,74.97
2023-02-28T05:45:21.754Z,75.07
2023-02-28T05:47:55.434Z,74.77
2023-02-28T05:50:24.297Z,74.62
2023-02-28T05:52:53.411Z,74.45
2023-02-28T05:55:22.414Z,73.82
2023-02-28T05:57:51.116Z,73.92
2023-02-28T06:00:20.693Z,73.85
2023-02-28T06:02:50.056Z,73.96
2023-02-28T06:05:20.723Z,73.95
2023-02-28T06:07:49.858Z,73.86
2023-02-28T06:10:18.846Z,73.74
2023-02-28T06:12:48.046Z,74.07
2023-02-28T06:15:17.826Z,73.96
2023-02-28T06:17:47.134Z,73.82
2023-02-28T06:20:15.769Z,73.61
2023-02-28T06:22:46.228Z,73.50
2023-02-28T06:25:14.908Z,73.67
2023-02-28T06:27:44.269Z,73.60
2023-02-28T06:30:14.641Z,73.65
2023-02-28T06:32:44.020Z,73.71
2023-02-28T06:35:12.747Z,73.88
2023-02-28T06:37:41.961Z,73.63
2023-02-28T06:40:14.259Z,73.59
2023-02-28T06:42:44.330Z,73.46
2023-02-28T06:45:13.930Z,73.38
2023-02-28T06:47:43.110Z,73.05
2023-02-28T06:50:14.602Z,73.11
2023-02-28T06:52:43.333Z,72.75
2023-02-28T06:55:13.621Z,72.18
2023-02-28T06:57:42.412Z,72.15
2023-02-28T07:00:12.422Z,71.87
2023-02-28T07:02:41.222Z,71.19
2023-02-28T07:05:10.557Z,70.68
2023-02-28T07:07:44.870Z,70.43
2023-02-28T07:10:20.197Z,69.99
2023-02-28T07:12:49.908Z,69.83
2023-02-28T07:15:18.728Z,69.64
2023-02-28T07:17:47.504Z,69.63
2023-02-28T07:20:16.468Z,68.59
2023-02-28T07:22:45.372Z,68.43
2023-02-28T07:25:15.660Z,68.23
2023-02-28T07:27:44.555Z,68.29
2023-02-28T07:30:16.002Z,68.00
2023-02-28T07:32:45.306Z,67.26
2023-02-28T07:35:16.367Z,67.10
2023-02-28T07:37:45.241Z,67.36
2023-02-28T07:40:16.516Z,67.49
2023-02-28T07:42:46.049Z,67.30
2023-02-28T07:45:20.604Z,67.11
2023-02-28T07:47:49.386Z,67.26
2023-02-28T07:50:18.621Z,67.04
2023-02-28T07:52:47.462Z,66.91
2023-02-28T07:55:17.996Z,66.88
2023-02-28T07:57:47.201Z,66.97
2023-02-28T08:00:16.638Z,67.17
2023-02-28T08:02:45.538Z,67.23
2023-02-28T08:05:14.217Z,67.17
2023-02-28T08:07:43.120Z,67.43
2023-02-28T08:10:12.813Z,67.64
2023-02-28T08:12:42.752Z,66.82
2023-02-28T08:15:12.169Z,66.87
2023-02-28T08:17:40.995Z,66.39
2023-02-28T08:20:11.769Z,65.96
2023-02-28T08:22:40.520Z,65.25
2023-02-28T08:25:10.335Z,64.76
2023-02-28T08:27:38.647Z,64.88
2023-02-28T08:30:11.229Z,64.73
2023-02-28T08:32:40.177Z,64.39
2023-02-28T08:35:10.494Z,64.32
2023-02-28T08:37:39.460Z,64.44
2023-02-28T08:40:09.681Z,64.30
2023-02-28T08:42:38.462Z,64.18
2023-02-28T08:45:09.664Z,63.07
2023-02-28T08:47:38.426Z,62.78
2023-02-28T08:50:07.954Z,62.53
2023-02-28T08:52:37.356Z,62.53
2023-02-28T08:55:06.200Z,62.38
2023-02-28T08:57:35.247Z,62.41
2023-02-28T09:00:05.497Z,62.52
2023-02-28T09:02:37.109Z,62.06
2023-02-28T09:05:06.618Z,62.36
2023-02-28T09:07:35.412Z,61.44
2023-02-28T09:10:04.490Z,61.73
2023-02-28T09:12:37.375Z,61.97
2023-02-28T09:15:07.437Z,61.49
2023-02-28T09:17:37.682Z,61.73
2023-02-28T09:20:07.865Z,61.12
2023-02-28T09:22:36.665Z,60.38
2023-02-28T09:25:05.745Z,60.46
2023-02-28T09:27:34.549Z,59.79
2023-02-28T09:30:03.188Z,59.62
2023-02-28T09:32:32.173Z,58.91
2023-02-28T09:35:02.487Z,59.13
2023-02-28T09:37:32.562Z,57.83
2023-02-28T09:40:01.296Z,57.48
2023-02-28T09:42:34.424Z,57.28
2023-02-28T09:45:09.400Z,57.58
2023-02-28T09:47:43.469Z,57.01
2023-02-28T09:50:25.640Z,57.56
2023-02-28T09:52:56.866Z,57.03
2023-02-28T09:55:35.322Z,56.70
2023-02-28T09:58:21.913Z,57.29
2023-02-28T10:00:54.478Z,56.65
2023-02-28T10:03:31.539Z,57.32
2023-02-28T10:06:09.896Z,56.52
2023-02-28T10:08:46.595Z,55.87
2023-02-28T10:11:19.247Z,56.32
2023-02-28T10:13:57.551Z,56.85
2023-02-28T10:16:33.399Z,56.15
2023-02-28T10:19:07.533Z,54.89
2023-02-28T10:21:43.655Z,55.03
2023-02-28T10:24:25.695Z,54.49
2023-02-28T10:26:59.718Z,53.98
2023-02-28T10:29:29.231Z,53.93
2023-02-28T10:31:58.421Z,53.28
2023-02-28T10:34:27.418Z,54.10
2023-02-28T10:37:08.677Z,54.03
2023-02-28T10:39:43.582Z,52.56
2023-02-28T10:42:27.012Z,53.07
2023-02-28T10:45:14.684Z,52.89
2023-02-28T10:47:54.976Z,52.65
2023-02-28T10:50:34.612Z,51.36
2023-02-28T10:53:24.605Z,51.41
2023-02-28T10:56:02.157Z,51.37
2023-02-28T10:58:34.048Z,51.00
2023-02-28T11:01:02.839Z,50.80
2023-02-28T11:03:34.683Z,50.93
2023-02-28T11:06:10.265Z,50.64
2023-02-28T11:08:47.070Z,49.94
2023-02-28T11:11:19.208Z,49.64
2023-02-28T11:13:51.164Z,49.19
2023-02-28T11:16:20.335Z,49.29
2023-02-28T11:18:52.679Z,48.85
2023-02-28T11:21:25.867Z,47.92
2023-02-28T11:24:03.054Z,47.87
2023-02-28T11:26:45.581Z,47.15
2023-02-28T11:29:21.438Z,47.39
2023-02-28T11:32:12.569Z,47.05
2023-02-28T11:34:42.502Z,46.83
2023-02-28T11:37:17.210Z,46.54
2023-02-28T11:39:46.636Z,46.13
2023-02-28T11:42:46.120Z,45.81
2023-02-28T11:45:30.604Z,45.35
2023-02-28T11:48:07.335Z,45.63
2023-02-28T11:50:54.014Z,45.36
2023-02-28T11:53:38.052Z,45.05
2023-02-28T11:56:13.769Z,45.26
2023-02-28T11:58:55.684Z,45.32
2023-02-28T12:01:35.774Z,44.75
2023-02-28T12:04:20.063Z,44.67
2023-02-28T12:06:59.113Z,44.77
2023-02-28T12:09:45.858Z,44.95
2023-02-28T12:12:25.481Z,44.21
2023-02-28T12:15:19.303Z,44.80
2023-02-28T12:18:01.144Z,43.89
2023-02-28T12:20:36.885Z,44.40
2023-02-28T12:23:24.501Z,43.86
2023-02-28T12:26:03.355Z,44.00
2023-02-28T12:28:36.757Z,43.95
2023-02-28T12:31:13.650Z,44.45
2023-02-28T12:33:48.501Z,44.59
2023-02-28T12:36:23.191Z,44.69
2023-02-28T12:38:58.159Z,43.92
2023-02-28T12:41:32.334Z,43.85
2023-02-28T12:44:06.372Z,44.25
2023-02-28T12:46:42.789Z,44.40
2023-02-28T12:49:15.998Z,44.93
2023-02-28T12:51:47.338Z,42.92
2023-02-28T12:54:26.786Z,43.26
2023-02-28T12:57:05.771Z,43.22
2023-02-28T12:59:40.733Z,44.29
2023-02-28T13:02:41.736Z,43.41
2023-02-28T13:05:32.184Z,43.86
2023-02-28T13:08:26.602Z,43.50
2023-02-28T13:10:56.638Z,44.27
2023-02-28T13:13:31.030Z,42.94
2023-02-28T13:16:07.121Z,42.23
2023-02-28T13:18:40.844Z,43.02
2023-02-28T13:21:12.711Z,42.46
2023-02-28T13:24:03.707Z,42.65
2023-02-28T13:26:53.157Z,42.34
2023-02-28T13:29:35.025Z,41.56
2023-02-28T13:32:25.488Z,42.75
2023-02-28T13:35:36.759Z,42.28
2023-02-28T13:38:19.029Z,41.52
2023-02-28T13:40:48.199Z,41.71
2023-02-28T13:43:27.896Z,41.92
2023-02-28T13:46:14.725Z,41.70
2023-02-28T13:48:43.657Z,40.79
2023-02-28T13:51:41.995Z,42.02
2023-02-28T13:54:23.886Z,42.49
2023-02-28T13:57:04.243Z,41.87
2023-02-28T13:59:42.822Z,42.24
2023-02-28T14:02:40.500Z,41.58
2023-02-28T14:05:17.632Z,41.62
2023-02-28T14:07:51.355Z,41.50
2023-02-28T14:10:31.530Z,42.50
2023-02-28T14:13:15.839Z,42.63
2023-02-28T14:15:51.930Z,42.27
2023-02-28T14:18:27.296Z,42.75
2023-02-28T14:21:03.701Z,42.75
2023-02-28T14:23:55.441Z,42.62
2023-02-28T14:26:44.050Z,42.55
2023-02-28T14:29:38.350Z,42.58
2023-02-28T14:32:17.261Z,41.54
2023-02-28T14:34:55.571Z,42.01
2023-02-28T14:37:31.512Z,41.63
2023-02-28T14:40:03.138Z,42.36
2023-02-28T14:42:34.446Z,42.09
2023-02-28T14:45:04.092Z,41.97
2023-02-28T14:47:35.959Z,43.01
2023-02-28T14:50:07.378Z,43.06
2023-02-28T14:52:37.273Z,44.04
2023-02-28T14:55:16.711Z,43.72
2023-02-28T14:57:54.642Z,44.49
2023-02-28T15:00:29.202Z,43.77
2023-02-28T15:02:59.801Z,43.06
2023-02-28T15:05:32.086Z,43.83
2023-02-28T15:08:08.397Z,43.64
2023-02-28T15:10:39.278Z,44.20
2023-02-28T15:13:10.317Z,44.05
2023-02-28T15:16:02.041Z,44.49
2023-02-28T15:18:40.408Z,45.10
2023-02-28T15:21:13.655Z,44.74
2023-02-28T15:23:45.314Z,44.85
2023-02-28T15:26:19.027Z,45.41
2023-02-28T15:28:48.275Z,45.45
2023-02-28T15:31:25.298Z,45.71
2023-02-28T15:34:00.173Z,45.61
2023-02-28T15:36:34.501Z,46.06
2023-02-28T15:39:14.407Z,45.75
2023-02-28T15:41:46.226Z,45.77
2023-02-28T15:44:31.164Z,45.45
2023-02-28T15:47:03.844Z,45.47
2023-02-28T15:49:44.891Z,45.46
2023-02-28T15:52:19.086Z,46.05
2023-02-28T15:54:49.695Z,45.70
2023-02-28T15:57:24.888Z,46.13
2023-02-28T15:59:57.560Z,45.90
2023-02-28T16:02:35.155Z,45.79
2023-02-28T16:05:21.782Z,45.79
2023-02-28T16:07:50.621Z,45.29
2023-02-28T16:10:19.407Z,45.51
2023-02-28T16:12:49.666Z,45.70
2023-02-28T16:15:23.082Z,45.86
2023-02-28T16:17:51.864Z,45.58
2023-02-28T16:20:22.596Z,46.51
2023-02-28T16:22:51.560Z,48.01
2023-02-28T16:25:23.309Z,48.27
2023-02-28T16:27:56.173Z,48.59
2023-02-28T16:30:27.121Z,47.87
2023-02-28T16:32:57.890Z,48.47
2023-02-28T16:35:26.740Z,48.54
2023-02-28T16:37:55.746Z,48.77
2023-02-28T16:40:29.781Z,49.20
2023-02-28T16:43:03.021Z,49.36
2023-02-28T16:45:32.142Z,49.93
2023-02-28T16:48:00.845Z,51.06
2023-02-28T16:50:33.799Z,51.42
2023-02-28T16:53:02.591Z,51.12
2023-02-28T16:55:31.283Z,51.70
2023-02-28T16:58:03.079Z,52.31
2023-02-28T17:00:33.917Z,53.33
2023-02-28T17:03:06.390Z,54.01
2023-02-28T17:05:40.788Z,54.81
2023-02-28T17:08:11.209Z,55.41
2023-02-28T17:10:40.016Z,55.79
2023-02-28T17:13:15.110Z,56.02
2023-02-28T17:15:47.494Z,56.09
2023-02-28T17:18:20.005Z,56.34
2023-02-28T17:20:49.657Z,55.86
2023-02-28T17:23:18.309Z,55.88
2023-02-28T17:25:57.531Z,56.33
2023-02-28T17:28:28.471Z,57.27
2023-02-28T17:30:57.354Z,58.50
2023-02-28T17:33:26.101Z,59.36
2023-02-28T17:35:55.176Z,60.33
2023-02-28T17:38:24.283Z,60.77
2023-02-28T17:40:58.329Z,62.54
2023-02-28T17:43:29.645Z,63.15
2023-02-28T17:45:59.438Z,64.07
2023-02-28T17:48:29.150Z,63.55
2023-02-28T17:50:59.406Z,63.98
2023-02-28T17:53:28.801Z,64.86
2023-02-28T17:55:57.487Z,64.83
2023-02-28T17:58:26.474Z,65.28
2023-02-28T18:00:56.644Z,65.42
2023-02-28T18:03:27.339Z,65.64
2023-02-28T18:05:58.094Z,65.85
2023-02-28T18:08:27.174Z,66.10
2023-02-28T18:10:55.994Z,66.56
2023-02-28T18:13:25.211Z,66.41
2023-02-28T18:15:54.053Z,66.66
2023-02-28T18:18:24.416Z,65.91
2023-02-28T18:20:54.349Z,66.23
2023-02-28T18:23:23.176Z,66.15
2023-02-28T18:25:51.875Z,66.50
2023-02-28T18:28:20.695Z,66.21
2023-02-28T18:30:49.415Z,66.36
2023-02-28T18:33:18.372Z,66.78
2023-02-28T18:35:48.596Z,66.74
2023-02-28T18:38:19.521Z,66.64
2023-02-28T18:40:55.160Z,66.88
2023-02-28T18:43:24.189Z,67.45
2023-02-28T18:45:52.886Z,67.87
2023-02-28T18:48:23.446Z,67.91
2023-02-28T18:50:54.087Z,67.78
2023-02-28T18:53:23.070Z,68.40
2023-02-28T18:55:51.804Z,68.75
2023-02-28T18:58:21.049Z,68.47
2023-02-28T19:00:49.939Z,69.27
2023-02-28T19:03:20.396Z,68.99
2023-02-28T19:05:50.176Z,69.44
2023-02-28T19:08:21.336Z,69.05
2023-02-28T19:10:50.085Z,69.82
2023-02-28T19:13:19.012Z,70.03
2023-02-28T19:15:47.729Z,69.36
2023-02-28T19:18:16.533Z,69.47
2023-02-28T19:20:45.121Z,69.91
2023-02-28T19:23:15.673Z,69.93
2023-02-28T19:25:45.785Z,69.69
2023-02-28T19:28:14.510Z,70.03
2023-02-28T19:30:48.444Z,69.58
2023-02-28T19:33:17.824Z,69.92
2023-02-28T19:35:46.422Z,69.59
2023-02-28T19:38:15.623Z,70.45
2023-02-28T19:40:45.728Z,70.38
2023-02-28T19:43:14.370Z,69.97
2023-02-28T19:45:43.083Z,70.07
2023-02-28T19:48:11.866Z,69.96
2023-02-28T19:50:41.825Z,70.42
2023-02-28T19:53:10.928Z,70.52
2023-02-28T19:55:40.256Z,70.99
2023-02-28T19:58:11.006Z,71.17
2023-02-28T20:00:39.769Z,71.27
2023-02-28T20:03:08.436Z,71.24
2023-02-28T20:05:38.122Z,71.42
2023-02-28T20:08:06.907Z,71.21
2023-02-28T20:10:36.268Z,71.44
2023-02-28T20:13:05.094Z,71.48
2023-02-28T20:15:36.613Z,71.83
2023-02-28T20:18:05.582Z,71.74
2023-02-28T20:20:37.842Z,71.95
2023-02-28T20:23:07.494Z,72.10
2023-02-28T20:25:39.910Z,72.27
2023-02-28T20:28:08.795Z,72.37
2023-02-28T20:30:42.188Z,72.17
2023-02-28T20:33:11.436Z,72.04
2023-02-28T20:35:40.099Z,72.15
2023-02-28T20:38:08.941Z,71.87
2023-02-28T20:40:37.717Z,72.96
2023-02-28T20:43:06.498Z,72.46
2023-02-28T20:45:35.886Z,73.09
2023-02-28T20:48:06.430Z,72.97
2023-02-28T20:50:35.224Z,73.11
2023-02-28T20:53:03.907Z,73.12
2023-02-28T20:55:32.730Z,73.16
2023-02-28T20:58:01.603Z,72.90
2023-02-28T21:00:30.341Z,73.33
2023-02-28T21:02:59.300Z,72.88
2023-02-28T21:05:30.015Z,73.14
2023-02-28T21:07:58.773Z,73.41
2023-02-28T21:10:27.719Z,73.69
2023-02-28T21:12:58.050Z,73.64
2023-02-28T21:15:27.426Z,73.48
2023-02-28T21:17:56.205Z,73.37
2023-02-28T21:20:25.047Z,73.98
2023-02-28T21:22:55.204Z,74.31
2023-02-28T21:25:23.993Z,73.81
2023-02-28T21:27:55.836Z,73.49
2023-02-28T21:30:24.736Z,73.81
2023-02-28T21:32:53.438Z,73.77
2023-02-28T21:35:22.362Z,73.99
2023-02-28T21:37:51.056Z,73.83
2023-02-28T21:40:21.509Z,73.49
2023-02-28T21:42:50.316Z,73.65
2023-02-28T21:45:19.135Z,73.80
2023-02-28T21:47:47.695Z,73.66
2023-02-28T21:50:16.532Z,73.81
2023-02-28T21:52:45.595Z,73.14
2023-02-28T21:55:14.412Z,73.70
2023-02-28T21:57:44.582Z,73.38
2023-02-28T22:00:17.328Z,73.51
2023-02-28T22:02:46.200Z,73.17
2023-02-28T22:05:14.987Z,73.53
2023-02-28T22:07:46.001Z,73.81
2023-02-28T22:10:14.732Z,73.82
2023-02-28T22:12:44.853Z,73.62
2023-02-28T22:15:13.914Z,74.07
2023-02-28T22:17:43.050Z,74.06
2023-02-28T22:20:13.214Z,74.12
2023-02-28T22:22:41.954Z,74.07
2023-02-28T22:25:11.613Z,74.19
2023-02-28T22:27:40.381Z,74.11
2023-02-28T22:30:12.076Z,74.11
2023-02-28T22:32:40.893Z,74.17
2023-02-28T22:35:10.556Z,73.60
2023-02-28T22:37:39.367Z,73.83
2023-02-28T22:40:09.630Z,73.90
2023-02-28T22:42:38.420Z,73.65
2023-02-28T22:45:07.841Z,73.72
2023-02-28T22:47:38.057Z,73.67
2023-02-28T22:50:07.585Z,73.38
2023-02-28T22:52:36.303Z,73.68
2023-02-28T22:55:05.423Z,73.02
2023-02-28T22:57:34.122Z,73.15
2023-02-28T23:00:03.406Z,73.26
2023-02-28T23:02:32.503Z,72.81
2023-02-28T23:05:02.945Z,72.81
2023-02-28T23:07:31.733Z,72.97
2023-02-28T23:10:00.341Z,73.16
2023-02-28T23:12:30.321Z,73.36
2023-02-28T23:14:59.142Z,73.18
2023-02-28T23:17:27.872Z,73.28
2023-02-28T23:19:56.616Z,72.78
2023-02-28T23:22:27.098Z,72.88
2023-02-28T23:24:55.931Z,72.89
2023-02-28T23:27:24.641Z,72.76
2023-02-28T23:29:54.360Z,72.49
2023-02-28T23:32:23.104Z,72.90
2023-02-28T23:34:51.850Z,72.36
2023-02-28T23:37:20.636Z,72.47
2023-02-28T23:39:50.822Z,72.89
2023-02-28T23:42:20.037Z,72.88
2023-02-28T23:44:48.718Z,72.40
2023-02-28T23:47:17.527Z,72.66
2023-02-28T23:49:48.409Z,72.60
2023-02-28T23:52:17.205Z,72.21
2023-02-28T23:54:47.079Z,72.05
2023-02-28T23:57:17.292Z,72.33
2023-02-28T23:59:46.258Z,71.96
